Time;durP1;ratioP1;P1;durP2;ratioP2;P2;SDS_P1;SDS_P2;PMS_P1;PMS_P2;Temp;Humidity;BMP_temperature;BMP_pressure;BME280_temperature;BME280_humidity;BME280_pressure;Samples;Min_cycle;Max_cycle;Signal;HPM_P1;HPM_P2
2023/07/21 00:02:13;;;;;;;7.60;4.70;;;;;;;18.79;71.75;98710.67;220423;193;675588;-62
2023/07/21 00:07:16;;;;;;;8.90;4.30;;;;;;;18.73;72.04;98708.44;223696;183;136125;-62
2023/07/21 00:12:19;;;;;;;7.40;4.10;;;;;;;18.68;72.36;98709.93;223603;183;143566;-62
2023/07/21 00:17:23;;;;;;;7.20;4.20;;;;;;;18.71;72.37;98706.27;223550;183;138421;-62
2023/07/21 00:22:26;;;;;;;7.90;4.20;;;;;;;18.75;72.25;98703.55;223594;184;136906;-63
2023/07/21 00:27:29;;;;;;;7.10;4.70;;;;;;;18.72;72.22;98703.66;223739;183;143804;-62
2023/07/21 00:32:33;;;;;;;7.80;4.40;;;;;;;18.68;72.09;98713.36;223741;183;138167;-62
2023/07/21 00:37:37;;;;;;;7.20;4.40;;;;;;;18.65;72.09;98712.27;223671;183;139128;-62
2023/07/21 00:42:41;;;;;;;13.20;4.10;;;;;;;18.57;72.09;98708.22;223766;182;144005;-62
2023/07/21 00:47:46;;;;;;;12.00;4.80;;;;;;;18.52;72.27;98704.56;223731;183;139412;-62
2023/07/21 00:52:50;;;;;;;10.50;5.40;;;;;;;18.55;72.10;98699.57;223827;182;137059;-62
2023/07/21 00:57:54;;;;;;;8.30;4.70;;;;;;;18.55;72.00;98698.16;223803;182;145397;-62
2023/07/21 01:03:00;;;;;;;10.40;4.30;;;;;;;18.53;71.84;98696.07;223660;181;138415;-61
2023/07/21 01:08:05;;;;;;;8.60;4.50;;;;;;;18.49;71.94;98696.48;223776;181;140138;-62
2023/07/21 01:13:10;;;;;;;16.90;4.70;;;;;;;18.43;71.73;98690.25;223713;181;145377;-62
2023/07/21 01:18:16;;;;;;;9.60;4.50;;;;;;;18.36;72.01;98694.20;223646;181;140001;-61
2023/07/21 01:23:19;;;;;;;8.90;4.00;;;;;;;18.33;71.96;98690.30;223807;181;138298;-63
2023/07/21 01:28:24;;;;;;;9.60;4.40;;;;;;;18.32;72.04;98683.92;223759;181;146114;-62
2023/07/21 01:33:29;;;;;;;6.80;4.10;;;;;;;18.34;71.92;98681.02;223773;181;138225;-62
2023/07/21 01:38:34;;;;;;;10.30;4.40;;;;;;;18.32;71.97;98682.20;223640;182;138900;-62
2023/07/21 01:43:38;;;;;;;8.40;4.30;;;;;;;18.24;71.96;98681.68;223670;181;146263;-62
2023/07/21 01:48:41;;;;;;;10.10;4.60;;;;;;;18.20;72.16;98677.20;223651;181;139379;-64
2023/07/21 01:53:49;;;;;;;11.80;4.10;;;;;;;18.16;72.03;98684.94;223738;181;139514;-62
2023/07/21 01:58:53;;;;;;;10.30;4.20;;;;;;;18.12;72.28;98686.10;223702;181;145447;-62
2023/07/21 02:03:57;;;;;;;5.10;3.80;;;;;;;18.16;72.53;98685.20;223468;181;139175;-63
2023/07/21 02:09:00;;;;;;;10.50;4.50;;;;;;;18.26;72.61;98686.35;223664;181;247946;-63
2023/07/21 02:14:03;;;;;;;6.50;4.20;;;;;;;18.26;72.69;98686.48;223744;181;145869;-62
2023/07/21 02:19:07;;;;;;;15.00;4.60;;;;;;;18.24;72.74;98675.65;223645;181;138297;-62
2023/07/21 02:24:10;;;;;;;12.20;4.60;;;;;;;18.23;72.93;98671.93;223684;181;137542;-64
2023/07/21 02:29:15;;;;;;;9.90;4.00;;;;;;;18.23;72.83;98679.52;223739;181;145682;-63
2023/07/21 02:34:18;;;;;;;7.70;4.90;;;;;;;18.27;72.90;98681.42;223764;182;138775;-64
2023/07/21 02:39:21;;;;;;;9.60;4.50;;;;;;;18.29;72.79;98680.34;223822;181;137032;-64
2023/07/21 02:44:25;;;;;;;11.10;4.90;;;;;;;18.30;72.80;98685.65;223708;181;145130;-64
2023/07/21 02:49:30;;;;;;;9.50;4.60;;;;;;;18.25;72.51;98686.80;223750;181;139438;-67
2023/07/21 02:54:33;;;;;;;;;;;;;;;18.23;72.51;98688.10;223798;181;136717;-65
2023/07/21 03:02:09;;;;;;;15.50;4.70;;;;;;;18.13;72.34;98695.73;222044;192;666431;-64
2023/07/21 05:05:33;;;;;;;5.30;3.20;;;;;;;18.56;68.60;98682.20;221751;193;665900;-62
2023/07/21 05:10:37;;;;;;;7.40;3.50;;;;;;;18.63;67.28;98682.45;223773;182;139210;-62
2023/07/21 05:15:42;;;;;;;6.90;3.10;;;;;;;18.69;67.34;98685.64;223830;182;145221;-62
2023/07/21 05:21:15;;;;;;;8.70;3.60;;;;;;;18.77;67.81;98688.80;223742;182;138705;-62
2023/07/21 05:26:32;;;;;;;8.20;3.00;;;;;;;18.89;67.33;98690.27;223861;182;135961;-62
2023/07/21 05:31:36;;;;;;;5.80;2.90;;;;;;;19.02;65.79;98694.67;223910;180;143217;-63
2023/07/21 05:36:52;;;;;;;5.30;2.80;;;;;;;19.10;64.67;98709.13;223824;181;138261;-62
2023/07/21 05:41:58;;;;;;;6.10;2.90;;;;;;;19.18;64.19;98717.47;224004;180;136695;-62
2023/07/21 05:47:06;;;;;;;5.70;3.30;;;;;;;19.22;63.92;98723.04;223949;181;143389;-62
2023/07/21 05:52:09;;;;;;;9.60;3.30;;;;;;;19.19;64.32;98724.56;223860;181;140026;-63
2023/07/21 05:57:21;;;;;;;6.90;3.60;;;;;;;19.19;64.28;98718.86;223867;182;138993;-62
2023/07/21 06:02:28;;;;;;;7.90;3.30;;;;;;;19.19;64.47;98717.02;223783;182;145347;-62
2023/07/21 06:07:34;;;;;;;7.40;3.20;;;;;;;19.15;64.60;98722.11;223714;181;138388;-63
2023/07/21 06:13:02;;;;;;;10.60;3.20;;;;;;;19.14;63.85;98723.25;223837;181;138149;-62
2023/07/21 06:18:23;;;;;;;8.00;3.30;;;;;;;19.21;64.13;98714.36;223793;181;145718;-63
2023/07/21 06:23:26;;;;;;;10.20;3.40;;;;;;;19.26;63.84;98715.10;223737;182;138404;-63
2023/07/21 06:28:30;;;;;;;5.20;3.30;;;;;;;19.35;62.95;98723.27;223858;181;136879;-63
2023/07/21 06:33:33;;;;;;;5.80;3.40;;;;;;;19.41;63.18;98709.90;223801;182;145690;-63
2023/07/21 06:38:56;;;;;;;4.90;3.20;;;;;;;19.43;63.37;98709.48;223757;181;138357;-63
2023/07/21 06:44:25;;;;;;;8.20;3.20;;;;;;;19.46;63.00;98714.27;223711;181;136610;-62
2023/07/21 06:49:49;;;;;;;5.60;3.40;;;;;;;19.51;61.88;98714.58;223778;181;145855;-62
2023/07/21 06:55:00;;;;;;;7.30;3.30;;;;;;;19.54;61.41;98716.93;223574;181;139603;-62
2023/07/21 07:02:09;;;;;;;5.60;3.60;;;;;;;19.58;62.09;98733.52;222099;192;666411;-62
2023/07/21 07:07:17;;;;;;;14.10;6.30;;;;;;;19.59;62.01;98738.23;223760;181;135927;-66
2023/07/21 07:12:21;;;;;;;8.20;4.30;;;;;;;19.60;62.18;98739.34;223790;182;145518;-63
2023/07/21 07:17:24;;;;;;;9.00;3.80;;;;;;;19.60;62.69;98739.92;223744;182;139097;-63
2023/07/21 07:22:27;;;;;;;14.30;4.70;;;;;;;19.61;63.61;98736.91;223736;182;139335;-63
2023/07/21 07:27:30;;;;;;;7.30;3.90;;;;;;;19.63;63.36;98738.15;223754;181;144289;-62
2023/07/21 07:32:34;;;;;;;15.30;4.10;;;;;;;19.70;63.06;98723.16;223827;181;138362;-63
2023/07/21 07:37:37;;;;;;;9.80;4.30;;;;;;;19.84;62.78;98720.89;223926;181;137058;-63
2023/07/21 07:42:40;;;;;;;7.50;4.30;;;;;;;20.05;62.14;98720.24;223974;181;143729;-63
2023/07/21 07:47:44;;;;;;;10.70;4.40;;;;;;;20.21;61.27;98719.69;224032;181;138441;-63
2023/07/21 07:52:49;;;;;;;10.20;4.50;;;;;;;20.31;61.05;98720.35;223742;181;137001;-62
2023/07/21 07:57:53;;;;;;;7.00;4.00;;;;;;;20.39;60.91;98727.70;223655;181;145839;-63
2023/07/21 08:02:56;;;;;;;9.80;4.20;;;;;;;20.52;60.46;98721.98;223743;181;138375;-63
2023/07/21 08:08:01;;;;;;;7.40;3.70;;;;;;;20.65;60.13;98715.00;223663;182;136445;-62
2023/07/21 08:13:05;;;;;;;13.00;3.70;;;;;;;20.79;59.85;98705.69;223665;181;145629;-63
2023/07/21 08:18:11;;;;;;;8.90;3.20;;;;;;;20.95;59.32;98703.89;223690;181;138130;-63
2023/07/21 08:23:14;;;;;;;8.50;3.60;;;;;;;21.09;59.63;98704.70;223750;182;137248;-63
2023/07/21 08:28:30;;;;;;;5.20;2.80;;;;;;;21.22;59.34;98697.98;223807;182;145980;-63
2023/07/21 08:33:33;;;;;;;4.20;2.80;;;;;;;21.40;59.39;98690.74;223774;181;138471;-62
2023/07/21 08:38:37;;;;;;;5.10;2.60;;;;;;;21.54;58.62;98688.13;223719;181;136869;-62
2023/07/21 08:43:41;;;;;;;5.00;2.40;;;;;;;21.66;58.48;98689.25;223622;182;145748;-63
2023/07/21 08:48:50;;;;;;;5.50;2.80;;;;;;;21.84;58.05;98687.02;223778;182;138469;-62
2023/07/21 08:53:53;;;;;;;4.00;2.50;;;;;;;21.98;57.25;98681.13;223758;181;137141;-62
2023/07/21 08:58:56;;;;;;;4.10;2.60;;;;;;;22.18;57.05;98682.39;223740;182;145051;-62
2023/07/21 09:04:00;;;;;;;4.80;2.20;;;;;;;22.35;55.95;98684.00;223731;182;138827;-63
2023/07/21 09:09:04;;;;;;;5.30;2.50;;;;;;;22.52;56.06;98686.03;223774;182;136748;-62
2023/07/21 09:14:08;;;;;;;6.90;2.50;;;;;;;22.63;56.42;98685.23;223683;182;146315;-62
2023/07/21 09:19:11;;;;;;;9.00;2.60;;;;;;;22.83;56.06;98680.98;223619;181;138140;-62
2023/07/21 09:24:26;;;;;;;5.10;2.30;;;;;;;23.12;55.44;98677.70;223789;182;136573;-62
2023/07/21 09:29:29;;;;;;;6.30;2.20;;;;;;;23.29;54.66;98680.11;223669;181;144903;-61
2023/07/21 09:34:32;;;;;;;4.80;2.00;;;;;;;23.38;53.70;98681.02;223750;182;140958;-62
2023/07/21 09:39:35;;;;;;;4.10;2.10;;;;;;;23.39;53.33;98685.64;223662;182;139090;-62
2023/07/21 09:44:38;;;;;;;5.40;2.30;;;;;;;23.45;53.48;98682.59;223622;181;145304;-62
2023/07/21 09:49:42;;;;;;;4.00;1.70;;;;;;;23.48;53.28;98686.77;223658;181;138457;-62
2023/07/21 09:54:48;;;;;;;3.20;1.60;;;;;;;23.53;52.81;98680.96;223611;181;136817;-62
2023/07/21 09:59:59;;;;;;;4.20;1.70;;;;;;;23.59;52.28;98675.81;223778;182;145717;-62
2023/07/21 10:05:06;;;;;;;4.90;1.60;;;;;;;23.61;51.91;98670.84;223636;182;138165;-60
2023/07/21 10:10:11;;;;;;;6.50;1.80;;;;;;;23.63;51.73;98670.44;223750;182;137416;-61
2023/07/21 10:15:16;;;;;;;4.60;1.60;;;;;;;23.68;51.49;98665.30;223692;182;145619;-61
2023/07/21 10:20:19;;;;;;;7.90;2.00;;;;;;;23.73;51.15;98661.24;223794;182;138164;-60
2023/07/21 10:25:24;;;;;;;3.10;1.70;;;;;;;23.75;50.89;98660.88;223694;181;136709;-61
2023/07/21 10:30:27;;;;;;;4.50;1.70;;;;;;;23.81;50.79;98662.43;223808;183;146171;-62
2023/07/21 10:35:37;;;;;;;3.80;1.60;;;;;;;23.89;50.31;98669.19;223734;182;139351;-61
2023/07/21 10:40:45;;;;;;;2.50;1.60;;;;;;;23.99;49.28;98664.00;223763;181;136876;-61
2023/07/21 10:45:51;;;;;;;3.00;1.50;;;;;;;24.09;49.01;98658.09;223649;182;145237;-61
2023/07/21 10:50:56;;;;;;;4.70;1.30;;;;;;;24.13;48.36;98655.72;223669;182;138408;-61
2023/07/21 10:56:07;;;;;;;1.70;1.30;;;;;;;24.17;47.94;98652.09;223715;182;230609;-61
2023/07/21 11:02:07;;;;;;;5.30;1.60;;;;;;;24.18;47.94;98652.19;221298;192;665966;-63
2023/07/21 11:07:11;;;;;;;4.00;1.60;;;;;;;24.12;47.96;98646.38;223269;185;136565;-62
2023/07/21 11:12:16;;;;;;;2.10;1.50;;;;;;;24.05;47.85;98649.23;223410;186;142957;-63
2023/07/21 11:17:19;;;;;;;2.10;1.20;;;;;;;24.01;47.86;98643.98;223583;182;138824;-63
2023/07/21 11:22:23;;;;;;;3.80;1.40;;;;;;;24.03;47.69;98642.80;223721;182;136666;-63
2023/07/21 11:27:29;;;;;;;2.70;1.30;;;;;;;24.19;47.15;98636.46;223724;182;143502;-63
2023/07/21 11:32:34;;;;;;;4.30;1.90;;;;;;;24.56;46.48;98626.65;223738;182;139032;-63
2023/07/21 11:37:40;;;;;;;5.30;1.60;;;;;;;24.91;45.74;98625.96;223812;182;136053;-63
2023/07/21 11:42:45;;;;;;;4.00;1.50;;;;;;;25.09;45.19;98619.66;223773;182;144487;-63
2023/07/21 11:47:49;;;;;;;4.20;1.90;;;;;;;25.31;44.54;98617.11;223767;182;139177;-63
2023/07/21 11:52:58;;;;;;;2.80;1.60;;;;;;;25.56;42.60;98609.91;223682;182;137107;-63
2023/07/21 12:02:09;;;;;;;7.90;1.70;;;;;;;25.69;42.30;98595.55;222004;192;665817;-63
2023/07/21 12:07:12;;;;;;;4.10;1.70;;;;;;;25.91;41.08;98593.67;223663;184;136197;-62
2023/07/21 12:12:16;;;;;;;5.70;1.70;;;;;;;26.11;40.25;98585.27;223797;183;143252;-63
2023/07/21 12:17:19;;;;;;;2.70;1.70;;;;;;;26.28;40.72;98574.81;223810;182;139189;-62
2023/07/21 12:22:25;;;;;;;3.40;1.30;;;;;;;26.16;41.20;98582.80;223774;182;136417;-63
2023/07/21 12:27:28;;;;;;;4.80;1.60;;;;;;;25.96;41.55;98582.77;223746;182;143196;-63
2023/07/21 12:32:32;;;;;;;5.40;1.70;;;;;;;25.81;42.10;98582.10;223752;182;138317;-63
2023/07/21 12:37:39;;;;;;;3.60;2.00;;;;;;;25.66;43.03;98576.33;223794;182;138653;-62
2023/07/21 12:42:43;;;;;;;9.20;2.20;;;;;;;25.59;43.03;98579.10;223830;182;143438;-62
2023/07/21 12:47:46;;;;;;;4.60;1.70;;;;;;;25.51;42.90;98579.48;223793;182;139180;-63
2023/07/21 12:52:50;;;;;;;4.70;1.90;;;;;;;25.33;42.91;98586.18;223801;181;136867;-63
2023/07/21 12:57:53;;;;;;;7.30;1.90;;;;;;;25.15;42.89;98595.95;223739;181;145364;-62
2023/07/21 13:02:57;;;;;;;7.50;2.50;;;;;;;25.08;43.57;98595.04;223688;181;138583;-62
2023/07/21 13:08:02;;;;;;;5.70;2.00;;;;;;;25.01;43.91;98591.27;223731;181;136195;-61
2023/07/21 13:13:05;;;;;;;10.50;3.30;;;;;;;25.17;43.95;98590.47;223744;181;145734;-62
2023/07/21 13:18:08;;;;;;;3.60;2.00;;;;;;;25.45;43.59;98591.48;223754;181;138279;-63
2023/07/21 13:23:12;;;;;;;2.70;1.60;;;;;;;25.70;42.21;98586.38;223803;181;136614;-61
2023/07/21 13:28:23;;;;;;;3.10;1.70;;;;;;;25.73;41.44;98583.08;223776;181;146878;-62
2023/07/21 13:33:27;;;;;;;3.00;1.70;;;;;;;25.78;42.00;98588.95;223733;182;138407;-61
2023/07/21 13:38:30;;;;;;;3.00;1.50;;;;;;;25.87;41.86;98586.88;223762;182;138901;-61
2023/07/21 13:43:34;;;;;;;4.40;1.90;;;;;;;26.09;41.99;98573.42;223692;181;146318;-62
2023/07/21 13:48:37;;;;;;;3.20;2.00;;;;;;;26.28;42.12;98553.70;223752;181;138203;-62
2023/07/21 13:53:40;;;;;;;6.10;2.20;;;;;;;26.37;41.95;98547.24;223871;182;136838;-62
2023/07/21 13:58:44;;;;;;;4.30;1.80;;;;;;;26.32;41.99;98545.02;223699;181;146770;-62
2023/07/21 14:03:47;;;;;;;5.50;2.00;;;;;;;26.16;42.41;98539.04;223618;182;138440;-62
2023/07/21 14:08:50;;;;;;;3.20;2.00;;;;;;;26.06;42.36;98541.83;223683;182;137154;-63
2023/07/21 14:13:53;;;;;;;4.70;2.10;;;;;;;25.94;42.56;98542.95;223654;182;145837;-62
2023/07/21 14:18:57;;;;;;;4.20;2.00;;;;;;;25.79;42.29;98541.45;223578;181;138385;-63
2023/07/21 14:24:04;;;;;;;3.90;2.20;;;;;;;25.61;43.14;98544.95;223655;182;136770;-63
2023/07/21 14:29:08;;;;;;;3.30;1.80;;;;;;;25.47;43.18;98544.92;223750;181;145435;-66
2023/07/21 14:34:11;;;;;;;5.10;2.00;;;;;;;25.35;43.39;98529.31;223700;181;139060;-62
2023/07/21 14:39:14;;;;;;;3.70;1.80;;;;;;;25.18;43.10;98531.16;223705;182;137417;-62
2023/07/21 14:44:19;;;;;;;3.80;1.90;;;;;;;25.11;43.42;98527.85;223635;181;145397;-61
2023/07/21 14:49:26;;;;;;;3.50;2.00;;;;;;;25.00;43.75;98523.06;223672;181;138276;-62
2023/07/21 14:54:29;;;;;;;3.90;2.00;;;;;;;24.91;43.97;98523.05;223806;182;137427;-61
2023/07/21 14:59:32;;;;;;;2.40;1.90;;;;;;;24.77;44.39;98523.80;223740;181;146823;-63
2023/07/21 15:04:36;;;;;;;3.00;1.80;;;;;;;24.64;44.52;98513.20;223650;181;138801;-62
2023/07/21 15:09:40;;;;;;;4.90;2.10;;;;;;;24.57;44.63;98506.23;223771;182;137724;-62
2023/07/21 15:14:43;;;;;;;6.10;2.10;;;;;;;24.49;44.46;98501.98;223703;181;149224;-62
2023/07/21 15:19:47;;;;;;;5.70;2.20;;;;;;;24.41;44.76;98489.98;223567;181;139269;-62
2023/07/21 15:24:50;;;;;;;4.60;2.20;;;;;;;24.34;45.15;98480.33;223789;182;137291;-63
2023/07/21 15:29:53;;;;;;;4.40;2.10;;;;;;;24.35;45.62;98472.77;223711;182;145310;-63
2023/07/21 15:34:56;;;;;;;5.90;2.10;;;;;;;24.37;46.33;98469.02;223724;182;138035;-63
2023/07/21 15:40:00;;;;;;;3.50;2.10;;;;;;;24.32;46.06;98473.33;223770;181;136702;-63
2023/07/21 15:45:04;;;;;;;7.60;1.90;;;;;;;24.18;46.13;98478.36;223648;183;146374;-63
2023/07/21 15:50:12;;;;;;;2.80;2.10;;;;;;;24.08;46.40;98473.70;223756;180;139187;-65
2023/07/21 15:55:17;;;;;;;2.10;1.70;;;;;;;23.96;46.90;98470.88;223717;181;136526;-64
2023/07/21 16:00:21;;;;;;;3.50;2.10;;;;;;;23.85;47.18;98473.84;223742;181;145656;-64
2023/07/21 16:05:25;;;;;;;3.40;2.00;;;;;;;23.86;47.57;98476.60;223770;181;138862;-64
2023/07/21 16:10:28;;;;;;;4.60;2.00;;;;;;;23.87;47.66;98467.23;223714;181;136699;-64
2023/07/21 16:15:31;;;;;;;4.20;2.00;;;;;;;23.87;47.86;98466.52;223782;181;145581;-64
2023/07/21 16:20:37;;;;;;;6.00;2.10;;;;;;;23.86;48.77;98448.17;223705;182;138376;-62
2023/07/21 16:25:40;;;;;;;4.50;2.10;;;;;;;23.82;51.06;98437.30;223694;182;137650;-61
2023/07/21 16:30:43;;;;;;;4.30;2.30;;;;;;;23.65;53.69;98430.56;223721;181;145715;-61
2023/07/21 16:35:51;;;;;;;6.50;2.20;;;;;;;23.53;55.04;98426.63;223768;181;138968;-63
2023/07/21 16:40:55;;;;;;;7.20;2.80;;;;;;;23.51;55.96;98428.60;223799;182;139595;-63
2023/07/21 16:45:58;;;;;;;10.40;5.00;;;;;;;23.57;57.14;98425.19;223648;182;146884;-63
2023/07/21 16:51:06;;;;;;;10.80;6.80;;;;;;;23.68;57.89;98417.89;223809;182;138996;-61
2023/07/21 16:56:09;;;;;;;14.10;5.90;;;;;;;23.78;58.41;98420.61;223720;181;137532;-62
2023/07/21 18:02:14;;;;;;;5.20;2.70;;;;;;;23.19;56.44;98362.66;221603;193;677584;-62
2023/07/21 18:07:19;;;;;;;6.80;2.90;;;;;;;23.06;56.77;98358.06;223288;185;138375;-64
2023/07/21 18:12:30;;;;;;;5.50;3.20;;;;;;;23.00;56.53;98348.80;223776;183;145177;-65
2023/07/21 18:17:33;;;;;;;8.70;3.10;;;;;;;22.97;56.63;98343.47;223651;183;138321;-64
2023/07/21 18:22:36;;;;;;;6.40;2.90;;;;;;;22.94;56.88;98336.80;223640;183;137361;-63
2023/07/21 18:27:40;;;;;;;6.00;2.90;;;;;;;22.87;57.33;98334.55;223633;183;145246;-63
2023/07/21 18:32:48;;;;;;;7.00;2.80;;;;;;;22.80;57.55;98332.17;223661;182;139125;-60
2023/07/21 18:37:52;;;;;;;4.70;2.70;;;;;;;22.74;58.21;98334.40;223705;183;137270;-64
2023/07/21 18:42:55;;;;;;;8.10;3.20;;;;;;;22.65;58.67;98338.91;223761;183;143419;-63
2023/07/21 18:47:59;;;;;;;6.40;2.90;;;;;;;22.59;58.82;98338.09;223699;182;139083;-63
2023/07/21 18:53:02;;;;;;;3.80;2.60;;;;;;;22.52;59.04;98325.32;223698;182;136442;-63
2023/07/21 18:58:06;;;;;;;5.70;3.00;;;;;;;22.50;59.37;98332.30;223692;183;145224;-61
2023/07/21 19:03:09;;;;;;;7.30;2.90;;;;;;;22.47;59.02;98328.30;223682;182;138411;-62
2023/07/21 19:08:12;;;;;;;4.00;3.00;;;;;;;22.44;58.81;98333.30;223657;182;136995;-62
2023/07/21 19:13:16;;;;;;;9.30;3.00;;;;;;;22.37;58.80;98338.00;223626;182;145119;-63
2023/07/21 19:18:19;;;;;;;5.70;3.00;;;;;;;22.41;59.26;98342.20;223738;182;231584;-63
2023/07/21 19:23:23;;;;;;;5.00;3.30;;;;;;;22.47;59.19;98349.86;223679;182;136384;-63
2023/07/21 19:28:26;;;;;;;4.40;3.30;;;;;;;22.46;58.90;98361.20;223709;182;145696;-63
2023/07/21 19:33:29;;;;;;;6.50;3.20;;;;;;;22.41;58.86;98359.92;223634;178;138675;-63
2023/07/21 19:38:33;;;;;;;6.50;3.40;;;;;;;22.28;59.36;98366.83;223750;183;136887;-63
2023/07/21 19:43:37;;;;;;;5.60;3.40;;;;;;;22.18;59.97;98370.55;223696;182;147600;-63
2023/07/21 19:48:40;;;;;;;7.00;3.70;;;;;;;22.10;60.42;98369.79;223616;183;138977;-62
2023/07/21 19:53:43;;;;;;;5.10;3.50;;;;;;;21.99;60.58;98368.77;223571;182;137301;-60
2023/07/21 19:58:47;;;;;;;6.10;3.80;;;;;;;21.90;61.22;98370.17;223639;182;145112;-63
2023/07/21 20:03:50;;;;;;;6.90;3.50;;;;;;;21.83;61.56;98371.03;223665;182;138511;-62
2023/07/21 20:08:54;;;;;;;5.00;3.40;;;;;;;21.80;61.73;98362.55;223624;182;136903;-62
2023/07/21 20:13:57;;;;;;;7.70;4.10;;;;;;;21.83;62.03;98362.67;223730;182;145844;-63
2023/07/21 20:19:00;;;;;;;9.70;4.80;;;;;;;21.87;62.13;98365.75;223687;182;139402;-63
2023/07/21 20:24:04;;;;;;;12.70;5.00;;;;;;;21.88;61.92;98376.41;223795;182;136405;-62
2023/07/21 20:29:13;;;;;;;7.20;4.40;;;;;;;21.87;61.94;98382.91;223641;182;146901;-62
2023/07/21 20:34:16;;;;;;;6.40;3.90;;;;;;;21.85;61.66;98393.85;223719;182;138575;-63
2023/07/21 20:39:20;;;;;;;6.40;3.90;;;;;;;21.81;61.38;98393.50;223764;182;137591;-63
2023/07/21 20:44:24;;;;;;;8.00;3.90;;;;;;;21.77;61.83;98389.04;223715;182;145322;-63
2023/07/21 20:49:27;;;;;;;7.80;4.00;;;;;;;21.81;61.77;98376.20;223620;182;138694;-63
2023/07/21 20:54:31;;;;;;;6.40;4.00;;;;;;;21.72;61.59;98367.48;223769;182;136428;-62
2023/07/21 21:02:06;;;;;;;6.40;3.60;;;;;;;21.59;62.16;98377.03;220180;193;666327;-63
2023/07/21 21:07:09;;;;;;;5.60;4.30;;;;;;;21.49;62.41;98374.44;223771;183;137004;-62
2023/07/21 21:12:15;;;;;;;7.10;3.60;;;;;;;21.43;63.16;98368.42;223759;183;145614;-62
2023/07/21 21:17:19;;;;;;;5.00;3.50;;;;;;;21.39;63.44;98361.85;223692;183;138326;-63
2023/07/21 21:22:23;;;;;;;7.60;3.80;;;;;;;21.39;63.57;98352.67;223738;183;136722;-63
2023/07/21 21:27:27;;;;;;;6.60;4.10;;;;;;;21.43;63.81;98357.23;223879;178;143631;-63
2023/07/21 21:32:30;;;;;;;6.90;4.00;;;;;;;21.44;63.82;98357.52;223641;181;138869;-63
2023/07/21 21:37:33;;;;;;;10.70;4.00;;;;;;;21.45;64.06;98354.59;223862;181;136825;-64
2023/07/21 21:42:37;;;;;;;8.30;4.20;;;;;;;21.46;64.16;98357.22;223930;181;143298;-63
2023/07/21 21:47:41;;;;;;;12.30;4.50;;;;;;;21.44;64.42;98364.70;223874;181;139872;-64
2023/07/21 21:52:46;;;;;;;8.20;4.60;;;;;;;21.41;64.45;98375.21;223912;181;137419;-63
2023/07/21 21:57:49;;;;;;;9.10;4.40;;;;;;;21.35;64.63;98368.83;223711;181;145374;-63
2023/07/21 22:02:52;;;;;;;9.00;4.70;;;;;;;21.36;64.48;98379.40;223742;181;139917;-64
2023/07/21 22:07:56;;;;;;;8.80;5.90;;;;;;;21.38;64.28;98387.57;223629;181;136451;-63
2023/07/21 22:12:59;;;;;;;9.60;5.10;;;;;;;21.42;63.72;98400.69;223782;181;145538;-63
2023/07/21 22:18:03;;;;;;;9.60;4.60;;;;;;;21.47;63.50;98398.11;223686;181;140830;-64
2023/07/21 22:23:06;;;;;;;7.50;4.70;;;;;;;21.51;63.32;98401.77;223540;181;137521;-63
2023/07/21 22:28:09;;;;;;;9.00;4.40;;;;;;;21.57;63.00;98404.73;223715;181;147452;-61
2023/07/21 22:33:12;;;;;;;8.30;4.60;;;;;;;21.62;62.91;98424.63;223716;181;138240;-62
2023/07/21 22:38:15;;;;;;;10.60;4.50;;;;;;;21.62;63.02;98434.99;223724;181;136614;-63
2023/07/21 22:43:18;;;;;;;5.90;4.60;;;;;;;21.54;63.47;98433.93;223628;181;145734;-64
2023/07/21 22:48:21;;;;;;;7.90;5.10;;;;;;;21.36;64.22;98438.37;223612;181;138206;-63
2023/07/21 22:53:25;;;;;;;7.80;5.20;;;;;;;21.19;64.96;98430.00;223711;181;136561;-63
2023/07/21 22:58:28;;;;;;;9.30;5.00;;;;;;;21.12;65.63;98422.02;223693;182;145306;-63
2023/07/21 23:03:32;;;;;;;8.30;5.20;;;;;;;21.03;66.11;98416.16;223712;181;138265;-63
2023/07/21 23:08:39;;;;;;;10.80;5.00;;;;;;;21.00;66.32;98420.24;223710;181;137471;-63
2023/07/21 23:13:43;;;;;;;8.10;5.10;;;;;;;20.95;66.74;98435.48;223666;181;144993;-64
2023/07/21 23:18:46;;;;;;;7.80;5.40;;;;;;;20.90;67.35;98436.80;223735;181;141192;-63
2023/07/21 23:23:49;;;;;;;7.80;5.60;;;;;;;20.88;67.74;98453.27;223744;181;136779;-64
2023/07/21 23:28:52;;;;;;;9.70;5.50;;;;;;;20.84;67.96;98467.08;223717;181;145828;-61
2023/07/21 23:33:58;;;;;;;10.70;5.10;;;;;;;20.75;68.30;98470.52;223573;181;140412;-63
2023/07/21 23:39:05;;;;;;;8.00;4.60;;;;;;;20.69;68.69;98468.08;223737;181;138083;-63
2023/07/21 23:44:09;;;;;;;6.90;4.60;;;;;;;20.70;68.93;98474.09;223767;181;145672;-64
2023/07/21 23:49:12;;;;;;;6.80;4.60;;;;;;;20.71;69.06;98475.91;223726;181;138385;-64
2023/07/21 23:54:15;;;;;;;7.00;4.00;;;;;;;20.72;68.70;98476.76;223801;181;137858;-63
2023/07/21 23:59:18;;;;;;;6.70;4.30;;;;;;;20.69;68.37;98492.97;223705;181;145881;-63
